createdAt,value
2023-04-03T00:02:01.318Z,43.71
2023-04-03T00:07:03.504Z,43.75
2023-04-03T00:12:05.979Z,43.81
2023-04-03T00:17:08.643Z,43.81
2023-04-03T00:22:10.989Z,43.86
2023-04-03T00:27:13.247Z,43.86
2023-04-03T00:32:15.176Z,43.88
2023-04-03T00:37:17.118Z,43.50
2023-04-03T00:42:19.390Z,43.56
2023-04-03T00:47:21.449Z,43.43
2023-04-03T00:52:27.124Z,43.71
2023-04-03T00:57:31.966Z,43.55
2023-04-03T01:02:34.303Z,43.67
2023-04-03T01:07:38.355Z,43.39
2023-04-03T01:12:46.882Z,43.46
2023-04-03T01:17:54.326Z,43.51
2023-04-03T01:23:14.503Z,43.78
2023-04-03T01:28:21.881Z,43.52
2023-04-03T01:33:23.909Z,43.59
2023-04-03T01:38:26.729Z,43.56
2023-04-03T01:43:28.641Z,43.44
2023-04-03T01:48:30.827Z,43.63
2023-04-03T01:53:32.782Z,43.44
2023-04-03T01:58:34.819Z,43.48
2023-04-03T02:03:37.097Z,43.64
2023-04-03T02:08:39.275Z,43.47
2023-04-03T02:13:41.704Z,43.75
2023-04-03T02:18:43.898Z,43.63
2023-04-03T02:23:46.213Z,43.69
2023-04-03T02:28:48.275Z,43.54
2023-04-03T02:33:50.227Z,43.51
2023-04-03T02:38:52.187Z,43.70
2023-04-03T02:43:54.309Z,43.77
2023-04-03T02:48:56.545Z,43.54
2023-04-03T02:53:58.589Z,43.42
2023-04-03T02:59:00.870Z,43.64
2023-04-03T03:04:03.129Z,43.59
2023-04-03T03:09:05.815Z,43.38
2023-04-03T03:14:08.051Z,43.57
2023-04-03T03:19:10.498Z,43.54
2023-04-03T03:24:13.584Z,43.54
2023-04-03T03:29:15.571Z,43.64
2023-04-03T03:34:17.560Z,43.23
2023-04-03T03:39:19.632Z,43.37
2023-04-03T03:44:21.996Z,43.36
2023-04-03T03:49:24.223Z,43.38
2023-04-03T03:54:26.220Z,43.28
2023-04-03T03:59:28.339Z,43.22
2023-04-03T04:04:30.465Z,43.33
2023-04-03T04:09:32.402Z,43.70
2023-04-03T04:14:34.454Z,43.29
2023-04-03T04:19:36.608Z,43.39
2023-04-03T04:24:39.839Z,43.31
2023-04-03T04:29:41.899Z,43.47
2023-04-03T04:34:43.889Z,43.45
2023-04-03T04:39:46.180Z,43.31
2023-04-03T04:44:48.028Z,43.19
2023-04-03T04:49:50.142Z,43.44
2023-04-03T04:54:51.959Z,43.24
2023-04-03T04:59:53.914Z,43.32
2023-04-03T05:04:55.946Z,43.26
2023-04-03T05:09:58.054Z,43.41
2023-04-03T05:14:59.927Z,43.23
2023-04-03T05:20:01.928Z,43.08
2023-04-03T05:25:04.142Z,43.26
2023-04-03T05:30:06.952Z,43.22
2023-04-03T05:35:09.532Z,43.39
2023-04-03T05:40:11.742Z,43.10
2023-04-03T05:45:13.604Z,43.19
2023-04-03T05:50:15.892Z,43.04
2023-04-03T05:55:18.145Z,42.89
2023-04-03T06:00:20.340Z,43.17
2023-04-03T06:05:22.152Z,43.15
2023-04-03T06:10:24.420Z,42.51
2023-04-03T06:15:27.065Z,41.64
2023-04-03T06:20:29.014Z,42.41
2023-04-03T06:25:31.019Z,42.00
2023-04-03T06:30:33.158Z,42.10
2023-04-03T06:35:36.347Z,41.61
2023-04-03T06:40:38.728Z,41.16
2023-04-03T06:45:41.147Z,41.46
2023-04-03T06:50:43.358Z,42.48
2023-04-03T06:55:45.227Z,42.31
2023-04-03T07:00:48.461Z,42.80
2023-04-03T07:05:50.753Z,42.20
2023-04-03T07:10:52.824Z,41.85
2023-04-03T07:15:55.270Z,42.64
2023-04-03T07:20:57.373Z,43.09
2023-04-03T07:25:59.723Z,42.40
2023-04-03T07:31:08.066Z,41.94
2023-04-03T07:36:12.222Z,41.84
2023-04-03T07:41:19.152Z,41.44
2023-04-03T07:46:22.175Z,41.04
2023-04-03T07:51:25.891Z,41.08
2023-04-03T07:56:27.999Z,41.79
2023-04-03T08:01:30.410Z,42.42
2023-04-03T08:06:45.730Z,42.36
2023-04-03T08:11:48.225Z,42.39
2023-04-03T08:16:50.240Z,42.02
2023-04-03T08:21:52.428Z,42.02
2023-04-03T08:26:54.643Z,42.02
2023-04-03T08:31:56.762Z,42.01
2023-04-03T08:36:58.700Z,41.02
2023-04-03T08:42:08.482Z,41.25
2023-04-03T08:47:29.386Z,41.00
2023-04-03T08:52:43.370Z,40.89
2023-04-03T08:57:47.498Z,40.79
2023-04-03T09:02:52.459Z,40.99
2023-04-03T09:08:13.285Z,40.84
2023-04-03T09:13:28.145Z,40.90
2023-04-03T09:18:41.943Z,40.71
2023-04-03T09:23:47.864Z,40.99
2023-04-03T09:28:51.119Z,40.71
2023-04-03T09:34:03.619Z,40.63
2023-04-03T09:39:17.315Z,40.60
2023-04-03T09:44:26.715Z,40.24
2023-04-03T09:49:28.855Z,40.48
2023-04-03T09:54:41.146Z,40.20
2023-04-03T10:00:00.788Z,40.43
2023-04-03T10:10:21.633Z,40.11
2023-04-03T10:15:24.506Z,40.18
2023-04-03T10:20:29.437Z,39.47
2023-04-03T10:25:42.404Z,39.43
2023-04-03T10:30:44.866Z,38.78
2023-04-03T10:36:10.587Z,38.62
2023-04-03T10:41:40.677Z,38.42
2023-04-03T10:46:51.247Z,37.78
2023-04-03T10:52:06.223Z,37.61
2023-04-03T10:57:13.538Z,37.78
2023-04-03T11:02:45.359Z,38.05
2023-04-03T11:07:52.344Z,37.94
2023-04-03T11:13:03.151Z,37.84
2023-04-03T11:18:14.225Z,37.77
2023-04-03T11:23:32.893Z,37.64
2023-04-03T11:28:41.308Z,37.48
2023-04-03T11:33:49.784Z,37.60
2023-04-03T11:38:56.249Z,37.76
2023-04-03T11:44:04.074Z,37.55
2023-04-03T11:49:06.518Z,37.56
2023-04-03T11:54:46.041Z,37.66
2023-04-03T11:59:48.231Z,37.80
2023-04-03T12:05:26.713Z,37.73
2023-04-03T12:10:32.616Z,37.60
2023-04-03T12:15:38.515Z,37.45
2023-04-03T12:20:53.446Z,37.40
2023-04-03T12:26:01.921Z,37.23
2023-04-03T12:31:06.872Z,37.50
2023-04-03T12:36:16.771Z,37.44
2023-04-03T12:41:32.205Z,37.31
2023-04-03T12:46:45.947Z,37.38
2023-04-03T12:51:48.732Z,37.58
2023-04-03T12:56:51.771Z,37.54
2023-04-03T13:02:04.044Z,37.26
2023-04-03T13:07:06.241Z,37.32
2023-04-03T13:12:14.342Z,37.34
2023-04-03T13:17:17.998Z,37.13
2023-04-03T13:22:34.887Z,37.03
2023-04-03T13:27:37.565Z,36.79
2023-04-03T13:32:39.887Z,36.59
2023-04-03T13:37:56.635Z,37.05
2023-04-03T13:43:20.502Z,36.84
2023-04-03T13:48:24.807Z,36.62
2023-04-03T13:53:28.883Z,36.50
2023-04-03T13:58:34.176Z,36.49
2023-04-03T14:03:53.028Z,36.09
2023-04-03T14:08:55.471Z,35.76
2023-04-03T14:14:01.718Z,35.98
2023-04-03T14:19:04.348Z,36.16
2023-04-03T14:24:07.125Z,35.87
2023-04-03T14:29:11.825Z,36.09
2023-04-03T14:34:14.989Z,36.04
2023-04-03T14:39:20.068Z,35.90
2023-04-03T14:44:22.414Z,35.87
2023-04-03T14:49:29.267Z,35.80
2023-04-03T14:54:31.275Z,36.22
2023-04-03T14:59:34.032Z,36.05
2023-04-03T15:04:36.054Z,36.09
2023-04-03T15:09:38.540Z,36.16
2023-04-03T15:14:51.788Z,35.94
2023-04-03T15:19:55.835Z,36.36
2023-04-03T15:24:57.810Z,35.95
2023-04-03T15:30:00.364Z,35.70
2023-04-03T15:35:03.445Z,35.98
2023-04-03T15:40:07.126Z,36.09
2023-04-03T15:45:10.003Z,36.03
2023-04-03T15:50:12.110Z,36.14
2023-04-03T15:55:14.134Z,36.07
2023-04-03T16:00:16.712Z,35.83
2023-04-03T16:05:20.196Z,35.76
2023-04-03T16:10:22.667Z,35.61
2023-04-03T16:15:26.138Z,35.30
2023-04-03T16:20:28.954Z,35.16
2023-04-03T16:25:32.288Z,35.26
2023-04-03T16:30:34.954Z,34.91
2023-04-03T16:35:37.384Z,34.98
2023-04-03T16:40:39.769Z,35.05
2023-04-03T16:45:42.206Z,34.59
2023-04-03T16:50:49.285Z,34.58
2023-04-03T16:55:52.300Z,34.63
2023-04-03T17:00:55.110Z,34.64
2023-04-03T17:05:57.451Z,34.50
2023-04-03T17:10:59.908Z,33.90
2023-04-03T17:16:06.200Z,34.09
2023-04-03T17:21:08.905Z,34.19
2023-04-03T17:26:11.052Z,34.49
2023-04-03T17:31:13.250Z,34.69
2023-04-03T17:36:15.309Z,34.94
2023-04-03T17:41:17.666Z,34.84
2023-04-03T17:46:19.738Z,34.62
2023-04-03T17:51:23.754Z,34.78
2023-04-03T17:56:27.504Z,35.10
2023-04-03T18:01:31.762Z,35.13
2023-04-03T18:06:40.369Z,34.99
2023-04-03T18:11:43.681Z,33.64
2023-04-03T18:16:45.735Z,33.74
2023-04-03T18:21:48.270Z,33.93
2023-04-03T18:27:01.374Z,35.57
2023-04-03T18:32:06.721Z,36.71
2023-04-03T18:37:08.774Z,36.36
2023-04-03T18:42:15.513Z,36.07
2023-04-03T18:47:17.373Z,35.91
2023-04-03T18:52:20.824Z,36.72
2023-04-03T18:57:23.126Z,35.56
2023-04-03T19:02:26.340Z,35.04
2023-04-03T19:07:28.780Z,34.61
2023-04-03T19:12:30.944Z,36.01
2023-04-03T19:17:33.040Z,35.69
2023-04-03T19:22:35.361Z,35.90
2023-04-03T19:27:38.618Z,36.02
2023-04-03T19:32:41.142Z,36.06
2023-04-03T19:37:43.208Z,36.32
2023-04-03T19:42:45.436Z,36.42
2023-04-03T19:47:47.789Z,36.16
2023-04-03T19:52:49.782Z,36.48
2023-04-03T19:57:52.278Z,36.47
2023-04-03T20:02:54.817Z,36.51
2023-04-03T20:07:57.174Z,36.36
2023-04-03T20:12:59.207Z,39.73
2023-04-03T20:18:01.689Z,40.09
2023-04-03T20:23:03.774Z,39.87
2023-04-03T20:28:05.888Z,39.80
2023-04-03T20:33:08.111Z,39.15
2023-04-03T20:38:10.269Z,39.27
2023-04-03T20:43:12.990Z,39.83
2023-04-03T20:48:15.439Z,40.08
2023-04-03T20:53:19.449Z,40.25
2023-04-03T20:58:21.340Z,40.38
2023-04-03T21:03:25.561Z,41.50
2023-04-03T21:09:07.730Z,41.61
2023-04-03T21:14:48.647Z,41.43
2023-04-03T21:19:50.887Z,40.34
2023-04-03T21:24:53.154Z,39.88
2023-04-03T21:29:56.630Z,39.68
2023-04-03T21:34:58.714Z,39.48
2023-04-03T21:40:00.846Z,39.32
2023-04-03T21:45:03.068Z,39.01
2023-04-03T21:50:05.330Z,39.04
2023-04-03T21:55:09.026Z,39.21
2023-04-03T22:00:11.254Z,39.21
2023-04-03T22:05:13.255Z,38.89
2023-04-03T22:10:16.276Z,39.01
2023-04-03T22:15:18.728Z,38.56
2023-04-03T22:20:21.101Z,38.65
2023-04-03T22:25:22.915Z,38.61
2023-04-03T22:30:24.953Z,38.75
2023-04-03T22:35:27.967Z,38.55
2023-04-03T22:40:30.018Z,38.73
2023-04-03T22:45:32.482Z,38.92
2023-04-03T22:50:37.484Z,38.74
2023-04-03T22:55:39.702Z,38.55
2023-04-03T23:00:42.073Z,38.95
2023-04-03T23:05:44.449Z,38.70
2023-04-03T23:10:46.689Z,38.86
2023-04-03T23:15:56.005Z,38.57
2023-04-03T23:21:01.842Z,38.48
2023-04-03T23:26:03.914Z,38.65
2023-04-03T23:31:10.720Z,38.68
2023-04-03T23:36:13.767Z,38.73
2023-04-03T23:41:15.654Z,38.79
2023-04-03T23:46:18.562Z,38.85
2023-04-03T23:51:21.110Z,38.68
2023-04-03T23:56:23.285Z,38.76
